23:56
Airports
Links
Donate
Help keep this website running!
PayPal
Bitcoin
METAR
ENAT 232350Z 14012KT 9999 SCT016 M18/M22 Q1011 RMK WIND 700FT 14018KT
Current Weather Conditions at ENAT
VFR 23:50:00 23-01-18
Altimeter:29.85 hg
Temp:-18.0°c -0°f
Dew point:-22.0°c -8°f
Wind:12 knots, 13.8 mph, 6 m/s, from 140°
Visibility:6.21 statute miles
1600(SCT) Scattered
Past METAR reports
VFR 22:50:00 23-01-18
Altimeter:29.85 hg
Temp:-18.0°c -0°f
Dew point:-22.0°c -8°f
Wind:13 knots, 15 mph, 7 m/s, from 150°
Visibility:6.21 statute miles
(CAVOK)
ENAT 232250Z 15013KT CAVOK M18/M22 Q1011 RMK WIND 700FT 15017KT
VFR 21:50:00 23-01-18
Altimeter:29.85 hg
Temp:-17.0°cf
Dew point:-21.0°c -6°f
Wind:5 knots, 5.8 mph, 3 m/s,
Variable direction
Visibility:6.21 statute miles
(CAVOK)
ENAT 232150Z VRB05KT CAVOK M17/M21 Q1011 RMK WIND 700FT 15011KT
VFR 20:50:00 23-01-18
Altimeter:29.88 hg
Temp:-17.0°cf
Dew point:-21.0°c -6°f
Wind:10 knots, 11.5 mph, 5 m/s, from 150°
Visibility:6.21 statute miles
(CAVOK)
ENAT 232050Z 15010KT CAVOK M17/M21 Q1012 RMK WIND 700FT 14009KT
VFR 19:50:00 23-01-18
Altimeter:29.88 hg
Temp:-16.0°cf
Dew point:-20.0°c -4°f
Wind:14 knots, 16.1 mph, 7 m/s, from 140°
Visibility:6.21 statute miles
(CAVOK)
ENAT 231950Z 14014KT CAVOK M16/M20 Q1012 RMK WIND 700FT 16017KT
VFR 18:50:00 23-01-18
Altimeter:29.88 hg
Temp:-15.0°cf
Dew point:-20.0°c -4°f
Wind:14 knots, 16.1 mph, 7 m/s, from 140°
Visibility:6.21 statute miles
(CAVOK)
ENAT 231850Z 14014KT CAVOK M15/M20 Q1012 RMK WIND 700FT 16016KT
TAF
TAF ENAT 231700Z 2318/2323 17008KT 9999 FEW015 SCT035
Forecast at ENAT
18:00 23-01-18 to 23:00 23-01-18
Wind:8 Knots from 170°
Visibility:6.21 statute miles
1500FEW A few
3500SCT Scattered